Hauptseite
METAR-TAF:

METAR-TAF

Flughäfen :

Militärflugplatz Cervia

Cervia, Italien

Breite: 44-13N, Länge: 012-18E, Höhe: 6 m

Beobachtung

Neuester Wetterbericht von vor 20 Minuten, um 01:55 UTC
Wind 5 kt aus Südost
Temperatur 18°C
Luftfeuchtigkeit 77%
Luftdruck 1017 hPa
Sichtweite 10 km oder mehr
keine Wolken unter 1500 m und keine Kumulonimbus oder Gewitterwolken

METAR: LIPC 230155Z 13005KT CAVOK 18/14 Q1017 RMK SCT SCT100 VIS MIN 9999 WIND THR11 10004KT WIND THR29 /////KT BLU

Zeit: 04:15 (02:15 UTC)

Prognose

Neuester Wetterbericht von vor 3 Stunden und 15 Minuten, um 23:00 UTC
Gültige Prognose vom 23 um 00 UTC bis 23 um 09 UTC
Wind 10 kt aus Ost/Südost
Sichtweite 10 km oder mehr
Leicht bewölkt in der Höhe von 6000 ft

TAF: LIPC 222300Z 2300/2309 11010KT 9999 FEW060

Wetterbeobachtungen und Prognosen von mehr als 4000 Flughäfen (METAR und TAF Bericht).

Die verfügbaren Stationen werden durch gelbe und rote Markierungen auf der Karte dargestellt.

Führen Sie die Maus auf sie, um den Namen der Station zu sehen.

Darauf klicken, um die Beobachtung von Wetterbeobachtungen und Prognosen zu sehen.

Um die Karte zu ändern : klicken Sie auf den grünen Tasten mit einem schwarzen Kreuz Zum Vergrößern, auf den grünen Button mit einem Gedankenstrich zu verkleinern, oder auf die grünen Pfeile für benachbarte Karten.


METAR-TAF: